createdAt,value
2023-03-22T00:00:41.666Z,5
2023-03-22T00:01:41.649Z,5
2023-03-22T00:02:41.710Z,7
2023-03-22T00:03:41.734Z,5
2023-03-22T00:04:41.617Z,7
2023-03-22T00:05:41.625Z,6
2023-03-22T00:06:41.625Z,6
2023-03-22T00:07:41.656Z,6
2023-03-22T00:08:41.614Z,7
2023-03-22T00:09:41.616Z,5
2023-03-22T00:10:41.620Z,6
2023-03-22T00:11:41.618Z,6
2023-03-22T00:12:41.673Z,6
2023-03-22T00:13:41.619Z,8
2023-03-22T00:14:41.787Z,8
2023-03-22T00:15:41.657Z,8
2023-03-22T00:16:41.614Z,7
2023-03-22T00:17:41.647Z,7
2023-03-22T00:19:41.624Z,7
2023-03-22T00:20:41.972Z,6
2023-03-22T00:21:41.617Z,7
2023-03-22T00:22:41.679Z,8
2023-03-22T00:23:41.638Z,8
2023-03-22T00:24:41.620Z,6
2023-03-22T00:25:41.646Z,5
2023-03-22T00:26:41.616Z,7
2023-03-22T00:27:41.618Z,5
2023-03-22T00:28:41.617Z,5
2023-03-22T00:29:41.608Z,6
2023-03-22T00:30:41.606Z,10
2023-03-22T00:31:41.688Z,7
2023-03-22T00:32:41.629Z,8
2023-03-22T00:33:41.649Z,8
2023-03-22T00:34:41.616Z,7
2023-03-22T00:35:41.626Z,6
2023-03-22T00:36:41.634Z,8
2023-03-22T00:37:41.660Z,7
2023-03-22T00:38:43.408Z,8
2023-03-22T00:39:41.631Z,6
2023-03-22T00:40:41.633Z,7
2023-03-22T00:41:41.627Z,8
2023-03-22T00:42:41.668Z,6
2023-03-22T00:43:41.644Z,8
2023-03-22T00:44:41.638Z,7
2023-03-22T00:45:41.629Z,9
2023-03-22T00:46:41.649Z,5
2023-03-22T00:47:41.710Z,9
2023-03-22T00:48:41.644Z,6
2023-03-22T00:49:41.618Z,7
2023-03-22T00:50:41.617Z,7
2023-03-22T00:51:41.611Z,7
2023-03-22T00:52:41.637Z,9
2023-03-22T00:53:43.282Z,6
2023-03-22T00:54:41.616Z,7
2023-03-22T00:55:41.638Z,7
2023-03-22T00:56:41.651Z,7
2023-03-22T00:57:41.624Z,7
2023-03-22T00:58:41.634Z,7
2023-03-22T00:59:41.618Z,9
2023-03-22T01:00:42.013Z,7
2023-03-22T01:01:41.623Z,6
2023-03-22T01:02:41.643Z,7
2023-03-22T01:03:41.714Z,7
2023-03-22T01:04:41.636Z,7
2023-03-22T01:05:41.608Z,8
2023-03-22T01:06:41.621Z,7
2023-03-22T01:07:41.624Z,6
2023-03-22T01:08:41.619Z,8
2023-03-22T01:09:41.658Z,7
2023-03-22T01:10:41.809Z,7
2023-03-22T01:11:41.627Z,7
2023-03-22T01:12:41.623Z,6
2023-03-22T01:13:41.741Z,6
2023-03-22T01:14:41.635Z,7
2023-03-22T01:15:41.613Z,8
2023-03-22T01:16:41.819Z,9
2023-03-22T01:17:41.619Z,9
2023-03-22T01:18:41.618Z,8
2023-03-22T01:19:41.631Z,8
2023-03-22T01:20:41.944Z,10
2023-03-22T01:21:41.625Z,6
2023-03-22T01:22:41.635Z,7
2023-03-22T01:23:41.620Z,6
2023-03-22T01:24:41.623Z,8
2023-03-22T01:25:41.621Z,8
2023-03-22T01:26:41.636Z,7
2023-03-22T01:27:41.649Z,7
2023-03-22T01:28:41.616Z,8
2023-03-22T01:29:41.625Z,8
2023-03-22T01:30:42.147Z,6
2023-03-22T01:31:41.618Z,8
2023-03-22T01:32:41.681Z,9
2023-03-22T01:33:41.853Z,8
2023-03-22T01:34:41.629Z,10
2023-03-22T01:35:41.676Z,9
2023-03-22T01:36:41.639Z,9
2023-03-22T01:37:41.621Z,9
2023-03-22T01:38:41.728Z,7
2023-03-22T01:39:41.633Z,8
2023-03-22T01:40:42.033Z,9
2023-03-22T01:41:41.621Z,9
2023-03-22T01:42:41.607Z,7
2023-03-22T01:43:41.641Z,8
2023-03-22T01:44:41.644Z,10
2023-03-22T01:45:41.615Z,7
2023-03-22T01:46:41.729Z,9
2023-03-22T01:47:41.670Z,8
2023-03-22T01:48:41.670Z,9
2023-03-22T01:49:41.643Z,7
2023-03-22T01:50:41.899Z,9
2023-03-22T01:51:42.787Z,10
2023-03-22T01:52:41.627Z,7
2023-03-22T01:53:41.642Z,7
2023-03-22T01:54:41.641Z,8
2023-03-22T01:55:41.623Z,7
2023-03-22T01:56:41.619Z,8
2023-03-22T01:57:41.627Z,8
2023-03-22T01:58:41.649Z,8
2023-03-22T01:59:41.647Z,10
2023-03-22T02:00:41.739Z,10
2023-03-22T02:01:41.677Z,8
2023-03-22T02:02:41.791Z,7
2023-03-22T02:03:41.626Z,10
2023-03-22T02:04:41.628Z,7
2023-03-22T02:05:41.627Z,9
2023-03-22T02:06:41.621Z,8
2023-03-22T02:07:41.650Z,8
2023-03-22T02:08:41.638Z,7
2023-03-22T02:09:41.644Z,8
2023-03-22T02:10:41.627Z,9
2023-03-22T02:11:41.714Z,14
2023-03-22T02:12:41.637Z,9
2023-03-22T02:13:41.612Z,9
2023-03-22T02:14:41.602Z,8
2023-03-22T02:15:41.661Z,7
2023-03-22T02:16:41.626Z,11
2023-03-22T02:17:41.619Z,8
2023-03-22T02:18:41.635Z,7
2023-03-22T02:19:41.641Z,7
2023-03-22T02:20:41.890Z,9
2023-03-22T02:21:41.626Z,8
2023-03-22T02:22:41.630Z,8
2023-03-22T02:23:41.638Z,9
2023-03-22T02:24:43.941Z,8
2023-03-22T02:25:41.624Z,6
2023-03-22T02:26:41.651Z,9
2023-03-22T02:27:41.635Z,6
2023-03-22T02:28:41.695Z,9
2023-03-22T02:29:41.652Z,9
2023-03-22T02:30:41.702Z,7
2023-03-22T02:31:41.632Z,7
2023-03-22T02:32:41.641Z,10
2023-03-22T02:33:41.842Z,8
2023-03-22T02:34:41.623Z,9
2023-03-22T02:35:41.836Z,8
2023-03-22T02:36:41.641Z,9
2023-03-22T02:37:41.624Z,8
2023-03-22T02:38:41.621Z,7
2023-03-22T02:39:41.642Z,9
2023-03-22T02:40:41.778Z,8
2023-03-22T02:41:41.629Z,7
2023-03-22T02:42:41.665Z,7
2023-03-22T02:43:41.635Z,8
2023-03-22T02:44:41.615Z,7
2023-03-22T02:45:41.627Z,6
2023-03-22T02:46:41.696Z,8
2023-03-22T02:47:41.697Z,10
2023-03-22T02:48:41.629Z,9
2023-03-22T02:49:41.639Z,8
2023-03-22T02:50:41.658Z,8
2023-03-22T02:51:41.613Z,7
2023-03-22T02:52:41.633Z,8
2023-03-22T02:53:41.644Z,9
2023-03-22T02:54:44.467Z,8
2023-03-22T02:56:41.628Z,8
2023-03-22T02:57:41.614Z,7
2023-03-22T02:58:41.613Z,9
2023-03-22T02:59:41.612Z,8
2023-03-22T03:00:42.149Z,9
2023-03-22T03:01:41.660Z,10
2023-03-22T03:02:41.629Z,8
2023-03-22T03:03:41.612Z,8
2023-03-22T03:04:41.627Z,9
2023-03-22T03:05:41.613Z,9
2023-03-22T03:06:41.618Z,7
2023-03-22T03:07:41.628Z,9
2023-03-22T03:08:41.621Z,9
2023-03-22T03:09:41.640Z,8
2023-03-22T03:10:42.165Z,8
2023-03-22T03:11:41.646Z,8
2023-03-22T03:12:41.620Z,8
2023-03-22T03:13:41.632Z,11
2023-03-22T03:14:41.611Z,10
2023-03-22T03:15:41.644Z,8
2023-03-22T03:16:41.786Z,8
2023-03-22T03:17:41.613Z,10
2023-03-22T03:18:41.615Z,10
2023-03-22T03:19:41.643Z,9
2023-03-22T03:20:41.942Z,10
2023-03-22T03:21:41.626Z,7
2023-03-22T03:22:41.617Z,9
2023-03-22T03:23:41.616Z,9
2023-03-22T03:24:41.688Z,8
2023-03-22T03:25:41.662Z,8
2023-03-22T03:26:41.618Z,9
2023-03-22T03:27:41.675Z,8
2023-03-22T03:28:41.625Z,10
2023-03-22T03:29:41.636Z,9
2023-03-22T03:30:41.644Z,9
2023-03-22T03:31:41.677Z,8
2023-03-22T03:32:41.621Z,9
2023-03-22T03:33:41.622Z,9
2023-03-22T03:34:41.626Z,9
2023-03-22T03:35:41.680Z,8
2023-03-22T03:36:41.618Z,10
2023-03-22T03:37:41.617Z,8
2023-03-22T03:38:41.628Z,11
2023-03-22T03:39:41.608Z,11
2023-03-22T03:40:41.873Z,9
2023-03-22T03:41:41.661Z,10
2023-03-22T03:42:41.634Z,9
2023-03-22T03:43:41.624Z,11
2023-03-22T03:44:41.624Z,11
2023-03-22T03:45:41.705Z,9
2023-03-22T03:46:41.653Z,10
2023-03-22T03:47:41.647Z,9
2023-03-22T03:48:41.620Z,10
2023-03-22T03:49:41.634Z,9
2023-03-22T03:50:42.024Z,9
2023-03-22T03:51:41.625Z,8
2023-03-22T03:52:41.620Z,10
2023-03-22T03:53:41.641Z,10
2023-03-22T03:54:41.627Z,9
2023-03-22T03:55:41.654Z,12
2023-03-22T03:56:41.622Z,13
2023-03-22T03:57:41.620Z,10
2023-03-22T03:58:41.627Z,8
2023-03-22T03:59:41.627Z,9
2023-03-22T04:00:41.992Z,10
2023-03-22T04:01:41.622Z,10
2023-03-22T04:02:41.733Z,10
2023-03-22T04:03:41.631Z,10
2023-03-22T04:04:41.753Z,10
2023-03-22T04:05:41.676Z,9
2023-03-22T04:06:41.630Z,11
2023-03-22T04:07:41.627Z,12
2023-03-22T04:08:41.653Z,13
2023-03-22T04:09:41.633Z,14
2023-03-22T04:10:41.837Z,10
2023-03-22T04:11:41.635Z,10
2023-03-22T04:12:41.613Z,12
2023-03-22T04:13:41.631Z,9
2023-03-22T04:14:41.628Z,9
2023-03-22T04:15:41.635Z,9
2023-03-22T04:16:41.724Z,11
2023-03-22T04:17:41.631Z,12
2023-03-22T04:18:41.640Z,9
2023-03-22T04:19:41.962Z,11
2023-03-22T04:20:41.878Z,11
2023-03-22T04:21:41.637Z,9
2023-03-22T04:22:41.649Z,10
2023-03-22T04:23:41.636Z,10
2023-03-22T04:24:41.667Z,9
2023-03-22T04:25:41.646Z,10
2023-03-22T04:26:41.652Z,10
2023-03-22T04:27:41.621Z,10
2023-03-22T04:28:41.656Z,8
2023-03-22T04:29:41.623Z,11
2023-03-22T04:30:42.092Z,11
2023-03-22T04:31:41.634Z,11
2023-03-22T04:32:41.636Z,9
2023-03-22T04:33:41.675Z,10
2023-03-22T04:34:41.632Z,9
2023-03-22T04:35:41.667Z,13
2023-03-22T04:36:41.639Z,9
2023-03-22T04:37:41.640Z,9
2023-03-22T04:38:41.630Z,12
2023-03-22T04:39:41.644Z,9
2023-03-22T04:40:42.144Z,8
2023-03-22T04:41:41.644Z,9
2023-03-22T04:42:41.641Z,9
2023-03-22T04:43:41.667Z,10
2023-03-22T04:44:41.626Z,8
2023-03-22T04:45:41.649Z,9
2023-03-22T04:46:41.695Z,8
2023-03-22T04:47:41.713Z,9
2023-03-22T04:48:41.637Z,8
2023-03-22T04:49:41.654Z,10
2023-03-22T04:50:42.016Z,9
2023-03-22T04:51:41.632Z,9
2023-03-22T04:52:41.785Z,8
2023-03-22T04:53:41.663Z,8
2023-03-22T04:54:41.665Z,10
2023-03-22T04:55:41.639Z,9
2023-03-22T04:56:41.613Z,8
2023-03-22T04:57:41.634Z,7
2023-03-22T04:58:41.628Z,9
2023-03-22T04:59:41.669Z,8
2023-03-22T05:00:41.910Z,8
2023-03-22T05:01:41.652Z,8
2023-03-22T05:02:41.837Z,9
2023-03-22T05:03:41.633Z,9
2023-03-22T05:04:41.664Z,8
2023-03-22T05:05:41.626Z,9
2023-03-22T05:06:41.615Z,9
2023-03-22T05:07:41.635Z,10
2023-03-22T05:08:41.620Z,10
2023-03-22T05:09:41.656Z,7
2023-03-22T05:10:42.122Z,8
2023-03-22T05:11:41.621Z,8
2023-03-22T05:12:41.638Z,9
2023-03-22T05:13:41.629Z,8
2023-03-22T05:14:41.644Z,7
2023-03-22T05:15:41.680Z,8
2023-03-22T05:16:41.633Z,8
2023-03-22T05:17:41.629Z,13
2023-03-22T05:18:41.636Z,7
2023-03-22T05:19:41.642Z,7
2023-03-22T05:20:41.954Z,9
2023-03-22T05:21:41.631Z,7
2023-03-22T05:22:41.622Z,8
2023-03-22T05:23:41.623Z,9
2023-03-22T05:24:41.663Z,8
2023-03-22T05:25:41.647Z,9
2023-03-22T05:26:41.621Z,7
2023-03-22T05:27:41.629Z,8
2023-03-22T05:28:41.630Z,9
2023-03-22T05:29:41.689Z,6
2023-03-22T05:30:41.918Z,8
2023-03-22T05:31:41.726Z,9
2023-03-22T05:32:41.617Z,7
2023-03-22T05:33:41.703Z,7
2023-03-22T05:34:41.616Z,8
2023-03-22T05:35:41.819Z,7
2023-03-22T05:36:41.627Z,9
2023-03-22T05:37:41.696Z,9
2023-03-22T05:38:41.631Z,7
2023-03-22T05:39:41.633Z,8
2023-03-22T05:40:42.088Z,6
2023-03-22T05:41:41.623Z,8
2023-03-22T05:42:41.633Z,8
2023-03-22T05:43:41.633Z,9
2023-03-22T05:44:41.635Z,8
2023-03-22T05:45:41.614Z,9
2023-03-22T05:46:41.739Z,8
2023-03-22T05:47:41.678Z,8
2023-03-22T05:48:41.643Z,7
2023-03-22T05:49:41.634Z,6
2023-03-22T05:50:41.698Z,7
2023-03-22T05:51:41.667Z,8
2023-03-22T05:52:41.653Z,8
2023-03-22T05:53:41.624Z,8
2023-03-22T05:54:41.661Z,9
2023-03-22T05:55:41.699Z,7
2023-03-22T05:56:41.648Z,7
2023-03-22T05:57:41.652Z,6
2023-03-22T05:58:41.641Z,7
2023-03-22T05:59:41.658Z,8
2023-03-22T06:00:41.918Z,9
2023-03-22T06:01:41.724Z,7
2023-03-22T06:02:41.726Z,9
2023-03-22T06:03:41.652Z,7
2023-03-22T06:04:41.716Z,8
2023-03-22T06:05:41.654Z,9
2023-03-22T06:06:41.654Z,8
2023-03-22T06:07:41.648Z,8
2023-03-22T06:08:41.640Z,6
2023-03-22T06:09:41.668Z,10
2023-03-22T06:10:42.164Z,6
2023-03-22T06:11:41.637Z,8
2023-03-22T06:12:41.647Z,8
2023-03-22T06:13:41.666Z,8
2023-03-22T06:14:41.626Z,7
2023-03-22T06:15:41.637Z,7
2023-03-22T06:16:41.697Z,9
2023-03-22T06:17:41.638Z,9
2023-03-22T06:18:41.646Z,11
2023-03-22T06:19:41.665Z,13
2023-03-22T06:20:42.109Z,11
2023-03-22T06:21:41.634Z,9
2023-03-22T06:22:41.635Z,8
2023-03-22T06:23:41.635Z,8
2023-03-22T06:24:41.625Z,8
2023-03-22T06:25:41.696Z,8
2023-03-22T06:26:41.713Z,7
2023-03-22T06:27:41.641Z,7
2023-03-22T06:28:41.658Z,9
2023-03-22T06:29:41.632Z,7
2023-03-22T06:30:42.120Z,9
2023-03-22T06:31:41.637Z,8
2023-03-22T06:32:41.630Z,9
2023-03-22T06:33:41.654Z,8
2023-03-22T06:34:41.639Z,7
2023-03-22T06:35:41.666Z,8
2023-03-22T06:36:41.643Z,8
2023-03-22T06:37:41.689Z,8
2023-03-22T06:38:41.634Z,9
2023-03-22T06:39:41.911Z,6
2023-03-22T06:40:41.941Z,7
2023-03-22T06:41:41.645Z,8
2023-03-22T06:42:41.614Z,9
2023-03-22T06:43:41.711Z,8
2023-03-22T06:44:41.624Z,7
2023-03-22T06:45:41.716Z,10
2023-03-22T06:46:41.636Z,9
2023-03-22T06:47:41.665Z,8
2023-03-22T06:48:41.640Z,8
2023-03-22T06:49:41.687Z,8
2023-03-22T06:50:44.086Z,8
2023-03-22T06:51:41.627Z,8
2023-03-22T06:52:41.640Z,7
2023-03-22T06:53:41.632Z,7
2023-03-22T06:54:41.707Z,7
2023-03-22T06:55:41.709Z,8
2023-03-22T06:56:41.623Z,7
2023-03-22T06:57:41.620Z,9
2023-03-22T06:58:41.646Z,7
2023-03-22T06:59:41.618Z,7
2023-03-22T07:00:42.105Z,8
2023-03-22T07:01:41.700Z,6
2023-03-22T07:02:41.634Z,7
2023-03-22T07:03:41.613Z,7
2023-03-22T07:04:41.683Z,6
2023-03-22T07:05:41.657Z,7
2023-03-22T07:06:41.622Z,7
2023-03-22T07:07:41.656Z,6
2023-03-22T07:08:41.656Z,10
2023-03-22T07:09:41.632Z,11
2023-03-22T07:10:42.048Z,12
2023-03-22T07:11:41.632Z,13
2023-03-22T07:12:41.634Z,8
2023-03-22T07:13:41.640Z,9
2023-03-22T07:14:41.636Z,10
2023-03-22T07:15:41.748Z,10
2023-03-22T07:16:41.622Z,9
2023-03-22T07:17:41.619Z,8
2023-03-22T07:18:41.651Z,9
2023-03-22T07:19:41.646Z,8
2023-03-22T07:20:42.087Z,9
2023-03-22T07:21:41.638Z,10
2023-03-22T07:22:41.657Z,9
2023-03-22T07:23:41.629Z,15
2023-03-22T07:24:50.527Z,13
2023-03-22T07:25:41.644Z,9
2023-03-22T07:26:41.621Z,15
2023-03-22T07:27:41.629Z,12
2023-03-22T07:28:41.634Z,10
2023-03-22T07:29:41.619Z,12
2023-03-22T07:30:42.067Z,16
2023-03-22T07:31:41.645Z,20
2023-03-22T07:32:41.629Z,9
2023-03-22T07:33:41.650Z,13
2023-03-22T07:34:41.643Z,25
2023-03-22T07:35:41.687Z,17
2023-03-22T07:36:41.639Z,10
2023-03-22T07:37:41.662Z,8
2023-03-22T07:38:41.642Z,18
2023-03-22T07:39:47.918Z,8
2023-03-22T07:40:42.047Z,9
2023-03-22T07:41:41.643Z,12
2023-03-22T07:42:41.647Z,17
2023-03-22T07:43:54.017Z,12
2023-03-22T07:44:41.641Z,8
2023-03-22T07:45:41.636Z,11
2023-03-22T07:46:41.868Z,10
2023-03-22T07:47:41.739Z,13
2023-03-22T07:48:41.678Z,36
2023-03-22T07:49:41.643Z,45
2023-03-22T07:50:41.949Z,25
2023-03-22T07:51:41.657Z,21
2023-03-22T07:52:41.663Z,35
2023-03-22T07:53:41.648Z,26
2023-03-22T07:54:41.652Z,17
2023-03-22T07:55:41.690Z,11
2023-03-22T07:56:41.637Z,9
2023-03-22T07:57:41.665Z,7
2023-03-22T07:58:41.685Z,12
2023-03-22T07:59:41.656Z,9
2023-03-22T08:00:41.884Z,11
2023-03-22T08:01:41.701Z,9
2023-03-22T08:02:41.683Z,8
2023-03-22T08:03:41.664Z,9
2023-03-22T08:04:41.638Z,8
2023-03-22T08:05:42.433Z,8
2023-03-22T08:06:41.669Z,7
2023-03-22T08:07:41.680Z,5
2023-03-22T08:08:41.665Z,6
2023-03-22T08:09:41.644Z,6
2023-03-22T08:10:41.904Z,5
2023-03-22T08:11:41.675Z,5
2023-03-22T08:12:41.670Z,4
2023-03-22T08:13:41.667Z,5
2023-03-22T08:14:41.642Z,6
2023-03-22T08:15:41.905Z,5
2023-03-22T08:16:41.805Z,5
2023-03-22T08:17:41.650Z,5
2023-03-22T08:18:43.645Z,5
2023-03-22T08:19:41.635Z,5
2023-03-22T08:20:42.105Z,3
2023-03-22T08:21:41.649Z,5
2023-03-22T08:22:41.666Z,6
2023-03-22T08:23:42.491Z,4
2023-03-22T08:24:41.652Z,4
2023-03-22T08:25:41.645Z,5
2023-03-22T08:26:41.646Z,7
2023-03-22T08:27:41.655Z,4
2023-03-22T08:28:41.665Z,6
2023-03-22T08:29:41.655Z,3
2023-03-22T08:30:41.840Z,2
2023-03-22T08:32:41.651Z,3
2023-03-22T08:33:41.680Z,3
2023-03-22T08:34:41.648Z,5
2023-03-22T08:35:42.318Z,4
2023-03-22T08:36:41.661Z,4
2023-03-22T08:37:41.671Z,3
2023-03-22T08:38:41.714Z,3
2023-03-22T08:40:41.698Z,4
2023-03-22T08:41:41.668Z,4
2023-03-22T08:42:41.676Z,4
2023-03-22T08:43:41.661Z,4
2023-03-22T08:44:41.645Z,5
2023-03-22T08:45:41.983Z,7
2023-03-22T08:46:41.654Z,4
2023-03-22T08:47:41.645Z,4
2023-03-22T08:48:41.751Z,5
2023-03-22T08:49:41.675Z,4
2023-03-22T08:50:41.654Z,4
2023-03-22T08:51:41.647Z,5
2023-03-22T08:52:41.654Z,4
2023-03-22T08:53:41.675Z,5
2023-03-22T08:54:41.658Z,4
2023-03-22T08:55:41.958Z,4
2023-03-22T08:56:41.914Z,5
2023-03-22T08:57:41.657Z,4
2023-03-22T08:58:41.674Z,4
2023-03-22T08:59:41.664Z,3
2023-03-22T09:00:48.598Z,4
2023-03-22T09:01:41.821Z,5
2023-03-22T09:02:41.676Z,3
2023-03-22T09:03:41.660Z,5
2023-03-22T09:04:41.689Z,3
2023-03-22T09:05:41.968Z,4
2023-03-22T09:06:41.635Z,2
2023-03-22T09:07:41.683Z,2
2023-03-22T09:08:41.667Z,2
2023-03-22T09:09:41.639Z,5
2023-03-22T09:10:41.655Z,4
2023-03-22T09:11:41.654Z,5
2023-03-22T09:12:41.667Z,5
2023-03-22T09:13:41.670Z,2
2023-03-22T09:14:41.652Z,3
2023-03-22T09:15:41.990Z,5
2023-03-22T09:16:41.648Z,5
2023-03-22T09:17:41.665Z,3
2023-03-22T09:18:41.665Z,3
2023-03-22T09:19:41.643Z,4
2023-03-22T09:20:42.132Z,2
2023-03-22T09:21:41.660Z,4
2023-03-22T09:22:41.671Z,2
2023-03-22T09:23:41.662Z,2
2023-03-22T09:24:41.656Z,2
2023-03-22T09:25:41.794Z,3
2023-03-22T09:26:41.649Z,2
2023-03-22T09:27:41.653Z,2
2023-03-22T09:28:41.713Z,5
2023-03-22T09:29:41.666Z,3
2023-03-22T09:30:42.044Z,2
2023-03-22T09:31:41.714Z,2
2023-03-22T09:32:41.653Z,1
2023-03-22T09:33:41.670Z,4
2023-03-22T09:34:41.660Z,3
2023-03-22T09:36:41.655Z,2
2023-03-22T09:37:41.693Z,4
2023-03-22T09:38:41.705Z,2
2023-03-22T09:39:41.680Z,3
2023-03-22T09:40:41.662Z,3
2023-03-22T09:41:41.663Z,2
2023-03-22T09:42:41.664Z,3
2023-03-22T09:43:41.679Z,3
2023-03-22T09:44:41.685Z,2
2023-03-22T09:45:41.994Z,2
2023-03-22T09:46:41.692Z,2
2023-03-22T09:47:45.073Z,1
2023-03-22T09:48:41.688Z,3
2023-03-22T09:49:52.945Z,2
2023-03-22T09:50:41.656Z,4
2023-03-22T09:51:41.653Z,2
2023-03-22T09:52:41.683Z,4
2023-03-22T09:53:41.644Z,3
2023-03-22T09:54:41.696Z,2
2023-03-22T09:55:42.106Z,2
2023-03-22T09:56:41.656Z,3
2023-03-22T09:57:41.662Z,2
2023-03-22T09:58:41.716Z,2
2023-03-22T09:59:41.674Z,2
2023-03-22T10:00:41.811Z,3
2023-03-22T10:01:41.931Z,2
2023-03-22T10:02:41.700Z,2
2023-03-22T10:03:41.652Z,1
2023-03-22T10:04:41.749Z,2
2023-03-22T10:05:42.044Z,1
2023-03-22T10:06:41.649Z,2
2023-03-22T10:07:41.664Z,4
2023-03-22T10:08:41.667Z,4
2023-03-22T10:09:41.675Z,2
2023-03-22T10:10:41.654Z,2
2023-03-22T10:11:42.835Z,3
2023-03-22T10:12:41.663Z,2
2023-03-22T10:13:41.668Z,2
2023-03-22T10:14:41.719Z,2
2023-03-22T10:15:42.190Z,2
2023-03-22T10:16:41.673Z,3
2023-03-22T10:17:41.646Z,5
2023-03-22T10:18:41.663Z,2
2023-03-22T10:19:41.683Z,1
2023-03-22T10:20:41.653Z,2
2023-03-22T10:21:41.650Z,3
2023-03-22T10:22:41.696Z,2
2023-03-22T10:23:43.949Z,1
2023-03-22T10:24:41.682Z,2
2023-03-22T10:25:42.149Z,4
2023-03-22T10:26:41.710Z,3
2023-03-22T10:27:41.664Z,3
2023-03-22T10:28:41.661Z,3
2023-03-22T10:29:41.674Z,3
2023-03-22T10:30:42.167Z,2
2023-03-22T10:31:41.696Z,3
2023-03-22T10:32:56.396Z,2
2023-03-22T10:33:43.556Z,3
2023-03-22T10:34:41.684Z,1
2023-03-22T10:35:42.037Z,2
2023-03-22T10:36:41.659Z,2
2023-03-22T10:37:41.672Z,2
2023-03-22T10:38:41.660Z,3
2023-03-22T10:39:41.686Z,1
2023-03-22T10:40:41.652Z,3
2023-03-22T10:41:41.675Z,3
2023-03-22T10:42:41.648Z,2
2023-03-22T10:43:41.665Z,3
2023-03-22T10:44:41.682Z,1
2023-03-22T10:45:42.046Z,2
2023-03-22T10:46:41.784Z,3
2023-03-22T10:47:41.734Z,2
2023-03-22T10:48:41.688Z,2
2023-03-22T10:49:41.667Z,2
2023-03-22T10:50:41.676Z,3
2023-03-22T10:51:41.650Z,1
2023-03-22T10:52:41.688Z,2
2023-03-22T10:53:41.689Z,3
2023-03-22T10:54:41.696Z,2
2023-03-22T10:55:42.212Z,2
2023-03-22T10:56:41.712Z,2
2023-03-22T10:57:41.822Z,1
2023-03-22T10:58:41.675Z,4
2023-03-22T10:59:41.690Z,2
2023-03-22T11:00:42.548Z,2
2023-03-22T11:01:41.920Z,2
2023-03-22T11:02:41.772Z,2
2023-03-22T11:03:41.667Z,1
2023-03-22T11:04:41.729Z,3
2023-03-22T11:05:41.947Z,2
2023-03-22T11:06:41.670Z,3
2023-03-22T11:07:41.690Z,3
2023-03-22T11:08:41.674Z,1
2023-03-22T11:09:41.692Z,2
2023-03-22T11:10:41.773Z,4
2023-03-22T11:11:41.669Z,2
2023-03-22T11:12:41.693Z,2
2023-03-22T11:13:41.675Z,2
2023-03-22T11:14:41.681Z,2
2023-03-22T11:15:42.019Z,4
2023-03-22T11:16:41.730Z,2
2023-03-22T11:17:43.327Z,2
2023-03-22T11:18:41.699Z,2
2023-03-22T11:19:41.675Z,1
2023-03-22T11:20:42.210Z,2
2023-03-22T11:21:41.660Z,3
2023-03-22T11:22:41.723Z,2
2023-03-22T11:23:41.734Z,2
2023-03-22T11:24:41.669Z,2
2023-03-22T11:25:41.687Z,3
2023-03-22T11:26:41.977Z,2
2023-03-22T11:27:41.793Z,2
2023-03-22T11:28:41.680Z,4
2023-03-22T11:29:41.669Z,2
2023-03-22T11:30:42.040Z,1
2023-03-22T11:31:41.738Z,2
2023-03-22T11:32:41.748Z,1
2023-03-22T11:33:41.663Z,2
2023-03-22T11:34:41.701Z,2
2023-03-22T11:35:41.730Z,4
2023-03-22T11:36:41.670Z,4
2023-03-22T11:37:41.702Z,2
2023-03-22T11:38:41.671Z,2
2023-03-22T11:39:41.669Z,3
2023-03-22T11:40:42.034Z,2
2023-03-22T11:41:41.692Z,2
2023-03-22T11:42:41.691Z,2
2023-03-22T11:43:41.674Z,1
2023-03-22T11:44:41.685Z,1
2023-03-22T11:45:41.741Z,2
2023-03-22T11:46:41.800Z,2
2023-03-22T11:47:41.814Z,3
2023-03-22T11:48:41.763Z,1
2023-03-22T11:49:41.675Z,3
2023-03-22T11:50:42.003Z,3
2023-03-22T11:51:41.694Z,2
2023-03-22T11:52:41.680Z,2
2023-03-22T11:53:41.684Z,2
2023-03-22T11:54:41.705Z,2
2023-03-22T11:55:42.101Z,2
2023-03-22T11:56:41.697Z,3
2023-03-22T11:57:41.689Z,2
2023-03-22T11:58:41.684Z,3
2023-03-22T11:59:41.717Z,2
2023-03-22T12:00:41.678Z,3
2023-03-22T12:01:41.981Z,2
2023-03-22T12:02:41.999Z,1
2023-03-22T12:03:42.200Z,3
2023-03-22T12:04:41.965Z,2
2023-03-22T12:05:41.962Z,2
2023-03-22T12:06:41.685Z,2
2023-03-22T12:07:41.673Z,3
2023-03-22T12:08:41.727Z,2
2023-03-22T12:09:41.722Z,4
2023-03-22T12:10:41.688Z,2
2023-03-22T12:11:41.708Z,3
2023-03-22T12:12:41.749Z,2
2023-03-22T12:13:41.720Z,1
2023-03-22T12:14:41.694Z,3
2023-03-22T12:15:42.166Z,2
2023-03-22T12:16:41.810Z,2
2023-03-22T12:17:41.757Z,1
2023-03-22T12:18:41.725Z,1
2023-03-22T12:19:41.687Z,1
2023-03-22T12:20:42.440Z,3
2023-03-22T12:21:41.678Z,2
2023-03-22T12:22:41.688Z,2
2023-03-22T12:23:41.683Z,2
2023-03-22T12:24:42.885Z,2
2023-03-22T12:25:42.137Z,3
2023-03-22T12:26:41.693Z,1
2023-03-22T12:27:41.704Z,2
2023-03-22T12:28:41.721Z,2
2023-03-22T12:29:41.687Z,3
2023-03-22T12:30:43.072Z,2
2023-03-22T12:31:41.739Z,1
2023-03-22T12:32:41.773Z,2
2023-03-22T12:33:41.711Z,2
2023-03-22T12:34:41.725Z,2
2023-03-22T12:35:41.929Z,2
2023-03-22T12:36:41.698Z,1
2023-03-22T12:37:41.691Z,2
2023-03-22T12:38:41.693Z,4
2023-03-22T12:39:41.697Z,1
2023-03-22T12:40:41.969Z,3
2023-03-22T12:41:41.682Z,3
2023-03-22T12:42:50.742Z,1
2023-03-22T12:44:42.367Z,2
2023-03-22T12:45:41.854Z,3
2023-03-22T12:46:41.743Z,3
2023-03-22T12:47:41.986Z,5
2023-03-22T12:48:42.099Z,2
2023-03-22T12:49:41.715Z,2
2023-03-22T12:50:42.014Z,2
2023-03-22T12:51:41.705Z,2
2023-03-22T12:52:45.721Z,2
2023-03-22T12:53:41.705Z,1
2023-03-22T12:54:41.744Z,3
2023-03-22T12:55:41.878Z,2
2023-03-22T12:56:41.707Z,3
2023-03-22T12:57:41.694Z,2
2023-03-22T12:58:42.336Z,2
2023-03-22T12:59:41.673Z,2
2023-03-22T13:00:42.030Z,2
2023-03-22T13:01:41.708Z,2
2023-03-22T13:02:41.812Z,1
2023-03-22T13:03:41.933Z,2
2023-03-22T13:04:41.705Z,5
2023-03-22T13:05:41.858Z,2
2023-03-22T13:06:41.710Z,4
2023-03-22T13:07:41.691Z,3
2023-03-22T13:08:41.699Z,3
2023-03-22T13:09:41.740Z,4
2023-03-22T13:10:42.019Z,3
2023-03-22T13:11:41.712Z,2
2023-03-22T13:12:41.696Z,2
2023-03-22T13:13:41.741Z,3
2023-03-22T13:14:41.711Z,2
2023-03-22T13:15:42.759Z,2
2023-03-22T13:16:41.762Z,1
2023-03-22T13:17:41.831Z,3
2023-03-22T13:18:41.700Z,3
2023-03-22T13:19:41.709Z,2
2023-03-22T13:20:42.002Z,2
2023-03-22T13:21:41.712Z,1
2023-03-22T13:22:41.729Z,1
2023-03-22T13:23:41.698Z,1
2023-03-22T13:24:41.735Z,2
2023-03-22T13:25:41.918Z,1
2023-03-22T13:26:41.699Z,3
2023-03-22T13:27:41.701Z,2
2023-03-22T13:28:41.702Z,2
2023-03-22T13:29:41.749Z,3
2023-03-22T13:30:41.705Z,2
2023-03-22T13:31:41.737Z,3
2023-03-22T13:32:41.738Z,2
2023-03-22T13:33:41.703Z,2
2023-03-22T13:34:41.715Z,2
2023-03-22T13:35:41.944Z,3
2023-03-22T13:36:41.703Z,3
2023-03-22T13:37:41.693Z,3
2023-03-22T13:38:42.614Z,2
2023-03-22T13:39:41.750Z,2
2023-03-22T13:40:42.059Z,2
2023-03-22T13:41:41.710Z,3
2023-03-22T13:42:41.714Z,2
2023-03-22T13:43:41.709Z,2
2023-03-22T13:44:41.730Z,2
2023-03-22T13:45:41.897Z,3
2023-03-22T13:46:41.932Z,4
2023-03-22T13:47:41.786Z,2
2023-03-22T13:48:41.889Z,4
2023-03-22T13:49:41.709Z,3
2023-03-22T13:50:41.927Z,2
2023-03-22T13:51:41.800Z,4
2023-03-22T13:52:41.738Z,3
2023-03-22T13:53:41.715Z,2
2023-03-22T13:54:41.731Z,4
2023-03-22T13:55:41.879Z,3
2023-03-22T13:56:41.701Z,3
2023-03-22T13:57:41.703Z,4
2023-03-22T13:58:41.707Z,2
2023-03-22T13:59:41.721Z,2
2023-03-22T14:00:41.886Z,4
2023-03-22T14:01:41.804Z,4
2023-03-22T14:02:41.827Z,4
2023-03-22T14:03:41.820Z,3
2023-03-22T14:04:41.747Z,3
2023-03-22T14:05:41.708Z,3
2023-03-22T14:06:41.696Z,3
2023-03-22T14:07:41.689Z,2
2023-03-22T14:08:41.709Z,3
2023-03-22T14:09:41.737Z,5
2023-03-22T14:10:43.372Z,4
2023-03-22T14:11:41.716Z,3
2023-03-22T14:12:41.735Z,4
2023-03-22T14:13:41.697Z,3
2023-03-22T14:14:41.796Z,3
2023-03-22T14:15:41.781Z,3
2023-03-22T14:16:41.695Z,3
2023-03-22T14:17:41.775Z,2
2023-03-22T14:18:41.726Z,3
2023-03-22T14:19:41.750Z,3
2023-03-22T14:20:41.860Z,3
2023-03-22T14:21:41.697Z,3
